sensor_id;sensor_type;location;lat;lon;timestamp;P1;durP1;ratioP1;P2;durP2;ratioP2
56537;SDS011;42435;53.292;6.000;2022-10-15T00:01:46;75.32;;;38.72;;
56537;SDS011;42435;53.292;6.000;2022-10-15T00:04:12;79.38;;;41.42;;
56537;SDS011;42435;53.292;6.000;2022-10-15T00:06:38;73.05;;;38.90;;
56537;SDS011;42435;53.292;6.000;2022-10-15T00:09:03;75.53;;;41.80;;
56537;SDS011;42435;53.292;6.000;2022-10-15T00:11:29;77.63;;;41.63;;
56537;SDS011;42435;53.292;6.000;2022-10-15T00:13:56;94.45;;;45.00;;
56537;SDS011;42435;53.292;6.000;2022-10-15T00:16:24;81.10;;;42.03;;
56537;SDS011;42435;53.292;6.000;2022-10-15T00:18:51;76.28;;;41.95;;
56537;SDS011;42435;53.292;6.000;2022-10-15T00:21:19;77.70;;;42.15;;
56537;SDS011;42435;53.292;6.000;2022-10-15T00:23:46;79.50;;;43.20;;
56537;SDS011;42435;53.292;6.000;2022-10-15T00:26:17;85.70;;;43.70;;
56537;SDS011;42435;53.292;6.000;2022-10-15T00:28:48;81.82;;;44.45;;
56537;SDS011;42435;53.292;6.000;2022-10-15T00:31:16;83.93;;;43.47;;
56537;SDS011;42435;53.292;6.000;2022-10-15T00:33:47;86.32;;;45.72;;
56537;SDS011;42435;53.292;6.000;2022-10-15T00:36:15;86.60;;;45.13;;
56537;SDS011;42435;53.292;6.000;2022-10-15T00:38:42;87.45;;;46.05;;
56537;SDS011;42435;53.292;6.000;2022-10-15T00:41:12;86.38;;;47.30;;
56537;SDS011;42435;53.292;6.000;2022-10-15T00:43:43;88.97;;;47.08;;
56537;SDS011;42435;53.292;6.000;2022-10-15T00:48:42;96.15;;;48.28;;
56537;SDS011;42435;53.292;6.000;2022-10-15T00:51:10;88.80;;;47.45;;
56537;SDS011;42435;53.292;6.000;2022-10-15T00:53:36;90.57;;;47.95;;
56537;SDS011;42435;53.292;6.000;2022-10-15T00:56:01;91.70;;;46.38;;
56537;SDS011;42435;53.292;6.000;2022-10-15T00:58:28;99.43;;;48.25;;
56537;SDS011;42435;53.292;6.000;2022-10-15T01:00:55;84.15;;;45.17;;
56537;SDS011;42435;53.292;6.000;2022-10-15T01:03:22;87.35;;;45.90;;
56537;SDS011;42435;53.292;6.000;2022-10-15T01:05:48;89.85;;;48.20;;
56537;SDS011;42435;53.292;6.000;2022-10-15T01:08:15;90.72;;;48.17;;
56537;SDS011;42435;53.292;6.000;2022-10-15T01:13:14;84.25;;;45.28;;
56537;SDS011;42435;53.292;6.000;2022-10-15T01:19:05;92.50;;;44.67;;
56537;SDS011;42435;53.292;6.000;2022-10-15T01:21:54;82.90;;;43.08;;
56537;SDS011;42435;53.292;6.000;2022-10-15T01:24:33;80.95;;;42.17;;
56537;SDS011;42435;53.292;6.000;2022-10-15T01:27:16;90.82;;;43.88;;
56537;SDS011;42435;53.292;6.000;2022-10-15T01:29:47;86.03;;;43.30;;
56537;SDS011;42435;53.292;6.000;2022-10-15T01:32:26;85.35;;;42.72;;
56537;SDS011;42435;53.292;6.000;2022-10-15T01:35:03;94.78;;;44.85;;
56537;SDS011;42435;53.292;6.000;2022-10-15T01:40:22;79.68;;;41.95;;
56537;SDS011;42435;53.292;6.000;2022-10-15T01:42:59;86.88;;;44.28;;
56537;SDS011;42435;53.292;6.000;2022-10-15T01:45:50;89.32;;;44.85;;
56537;SDS011;42435;53.292;6.000;2022-10-15T01:48:16;93.20;;;44.95;;
56537;SDS011;42435;53.292;6.000;2022-10-15T01:50:47;92.18;;;44.60;;
56537;SDS011;42435;53.292;6.000;2022-10-15T01:53:22;89.82;;;43.72;;
56537;SDS011;42435;53.292;6.000;2022-10-15T01:55:55;99.88;;;47.13;;
56537;SDS011;42435;53.292;6.000;2022-10-15T01:58:23;94.85;;;46.67;;
56537;SDS011;42435;53.292;6.000;2022-10-15T02:00:50;94.18;;;45.30;;
56537;SDS011;42435;53.292;6.000;2022-10-15T02:03:21;88.45;;;42.72;;
56537;SDS011;42435;53.292;6.000;2022-10-15T02:05:52;91.10;;;45.22;;
56537;SDS011;42435;53.292;6.000;2022-10-15T02:08:34;97.57;;;45.78;;
56537;SDS011;42435;53.292;6.000;2022-10-15T02:11:15;101.63;;;47.20;;
56537;SDS011;42435;53.292;6.000;2022-10-15T02:14:02;88.63;;;44.05;;
56537;SDS011;42435;53.292;6.000;2022-10-15T02:16:40;94.88;;;44.90;;
56537;SDS011;42435;53.292;6.000;2022-10-15T02:19:14;98.90;;;46.45;;
56537;SDS011;42435;53.292;6.000;2022-10-15T02:21:55;93.80;;;46.38;;
56537;SDS011;42435;53.292;6.000;2022-10-15T02:24:32;89.63;;;44.38;;
56537;SDS011;42435;53.292;6.000;2022-10-15T02:27:04;96.63;;;43.92;;
56537;SDS011;42435;53.292;6.000;2022-10-15T02:29:35;83.68;;;42.15;;
56537;SDS011;42435;53.292;6.000;2022-10-15T02:32:02;80.55;;;42.10;;
56537;SDS011;42435;53.292;6.000;2022-10-15T02:34:31;81.30;;;41.67;;
56537;SDS011;42435;53.292;6.000;2022-10-15T02:37:00;78.45;;;40.67;;
56537;SDS011;42435;53.292;6.000;2022-10-15T02:39:30;79.55;;;40.45;;
56537;SDS011;42435;53.292;6.000;2022-10-15T02:41:56;83.07;;;41.75;;
56537;SDS011;42435;53.292;6.000;2022-10-15T02:44:22;73.03;;;37.40;;
56537;SDS011;42435;53.292;6.000;2022-10-15T02:46:48;78.97;;;39.53;;
56537;SDS011;42435;53.292;6.000;2022-10-15T02:49:13;81.25;;;39.53;;
56537;SDS011;42435;53.292;6.000;2022-10-15T02:51:39;75.50;;;38.65;;
56537;SDS011;42435;53.292;6.000;2022-10-15T02:54:05;77.20;;;38.58;;
56537;SDS011;42435;53.292;6.000;2022-10-15T02:56:32;70.25;;;36.13;;
56537;SDS011;42435;53.292;6.000;2022-10-15T02:58:58;78.90;;;39.58;;
56537;SDS011;42435;53.292;6.000;2022-10-15T03:01:24;69.60;;;35.97;;
56537;SDS011;42435;53.292;6.000;2022-10-15T03:03:49;66.18;;;35.63;;
56537;SDS011;42435;53.292;6.000;2022-10-15T03:06:15;69.07;;;37.53;;
56537;SDS011;42435;53.292;6.000;2022-10-15T03:08:41;74.57;;;36.25;;
56537;SDS011;42435;53.292;6.000;2022-10-15T03:11:08;78.55;;;39.17;;
56537;SDS011;42435;53.292;6.000;2022-10-15T03:13:35;82.80;;;37.83;;
56537;SDS011;42435;53.292;6.000;2022-10-15T03:16:05;71.10;;;36.38;;
56537;SDS011;42435;53.292;6.000;2022-10-15T03:18:32;73.18;;;37.63;;
56537;SDS011;42435;53.292;6.000;2022-10-15T03:20:57;76.75;;;37.08;;
56537;SDS011;42435;53.292;6.000;2022-10-15T03:23:24;68.13;;;34.92;;
56537;SDS011;42435;53.292;6.000;2022-10-15T03:25:53;70.07;;;34.15;;
56537;SDS011;42435;53.292;6.000;2022-10-15T03:28:20;65.85;;;34.22;;
56537;SDS011;42435;53.292;6.000;2022-10-15T03:30:46;76.97;;;36.53;;
56537;SDS011;42435;53.292;6.000;2022-10-15T03:33:12;72.45;;;35.95;;
56537;SDS011;42435;53.292;6.000;2022-10-15T03:35:38;65.90;;;34.95;;
56537;SDS011;42435;53.292;6.000;2022-10-15T03:38:04;73.30;;;36.28;;
56537;SDS011;42435;53.292;6.000;2022-10-15T03:40:30;75.55;;;37.70;;
56537;SDS011;42435;53.292;6.000;2022-10-15T03:42:56;74.72;;;36.72;;
56537;SDS011;42435;53.292;6.000;2022-10-15T03:45:22;75.38;;;38.53;;
56537;SDS011;42435;53.292;6.000;2022-10-15T03:47:48;83.88;;;39.65;;
56537;SDS011;42435;53.292;6.000;2022-10-15T03:50:17;78.68;;;40.28;;
56537;SDS011;42435;53.292;6.000;2022-10-15T03:52:43;79.10;;;40.38;;
56537;SDS011;42435;53.292;6.000;2022-10-15T03:55:11;74.97;;;39.47;;
56537;SDS011;42435;53.292;6.000;2022-10-15T03:57:37;79.63;;;40.17;;
56537;SDS011;42435;53.292;6.000;2022-10-15T04:00:04;84.07;;;39.55;;
56537;SDS011;42435;53.292;6.000;2022-10-15T04:02:31;78.63;;;40.47;;
56537;SDS011;42435;53.292;6.000;2022-10-15T04:04:57;75.32;;;38.80;;
56537;SDS011;42435;53.292;6.000;2022-10-15T04:07:22;81.68;;;40.17;;
56537;SDS011;42435;53.292;6.000;2022-10-15T04:09:48;79.15;;;40.55;;
56537;SDS011;42435;53.292;6.000;2022-10-15T04:12:14;76.05;;;37.97;;
56537;SDS011;42435;53.292;6.000;2022-10-15T04:14:40;81.03;;;41.15;;
56537;SDS011;42435;53.292;6.000;2022-10-15T04:17:06;81.25;;;41.17;;
56537;SDS011;42435;53.292;6.000;2022-10-15T04:19:31;84.32;;;41.38;;
56537;SDS011;42435;53.292;6.000;2022-10-15T04:21:57;90.10;;;41.97;;
56537;SDS011;42435;53.292;6.000;2022-10-15T04:24:23;90.88;;;43.50;;
56537;SDS011;42435;53.292;6.000;2022-10-15T04:26:49;88.00;;;45.92;;
56537;SDS011;42435;53.292;6.000;2022-10-15T04:29:14;93.38;;;45.63;;
56537;SDS011;42435;53.292;6.000;2022-10-15T04:31:40;86.05;;;43.20;;
56537;SDS011;42435;53.292;6.000;2022-10-15T04:34:06;84.25;;;42.13;;
56537;SDS011;42435;53.292;6.000;2022-10-15T04:36:32;81.07;;;42.63;;
56537;SDS011;42435;53.292;6.000;2022-10-15T04:39:01;86.97;;;42.28;;
56537;SDS011;42435;53.292;6.000;2022-10-15T04:41:28;88.05;;;45.30;;
56537;SDS011;42435;53.292;6.000;2022-10-15T04:43:58;83.30;;;42.40;;
56537;SDS011;42435;53.292;6.000;2022-10-15T04:46:23;88.20;;;43.47;;
56537;SDS011;42435;53.292;6.000;2022-10-15T04:48:49;93.00;;;43.63;;
56537;SDS011;42435;53.292;6.000;2022-10-15T04:51:17;92.57;;;45.60;;
56537;SDS011;42435;53.292;6.000;2022-10-15T04:53:46;90.68;;;43.60;;
56537;SDS011;42435;53.292;6.000;2022-10-15T04:56:13;88.03;;;44.38;;
56537;SDS011;42435;53.292;6.000;2022-10-15T04:58:41;91.07;;;44.63;;
56537;SDS011;42435;53.292;6.000;2022-10-15T05:01:09;101.78;;;48.50;;
56537;SDS011;42435;53.292;6.000;2022-10-15T05:03:36;88.43;;;44.00;;
56537;SDS011;42435;53.292;6.000;2022-10-15T05:06:03;94.18;;;46.60;;
56537;SDS011;42435;53.292;6.000;2022-10-15T05:08:31;96.93;;;46.40;;
56537;SDS011;42435;53.292;6.000;2022-10-15T05:11:02;90.75;;;46.05;;
56537;SDS011;42435;53.292;6.000;2022-10-15T05:13:30;90.57;;;44.53;;
56537;SDS011;42435;53.292;6.000;2022-10-15T05:15:56;87.68;;;45.17;;
56537;SDS011;42435;53.292;6.000;2022-10-15T05:18:32;95.10;;;46.10;;
56537;SDS011;42435;53.292;6.000;2022-10-15T05:20:59;95.68;;;46.40;;
56537;SDS011;42435;53.292;6.000;2022-10-15T05:23:25;96.25;;;44.20;;
56537;SDS011;42435;53.292;6.000;2022-10-15T05:25:51;89.00;;;45.53;;
56537;SDS011;42435;53.292;6.000;2022-10-15T05:28:17;91.28;;;45.17;;
56537;SDS011;42435;53.292;6.000;2022-10-15T05:30:43;94.70;;;45.63;;
56537;SDS011;42435;53.292;6.000;2022-10-15T05:33:09;85.32;;;44.08;;
56537;SDS011;42435;53.292;6.000;2022-10-15T05:35:34;100.00;;;45.78;;
56537;SDS011;42435;53.292;6.000;2022-10-15T05:38:00;86.25;;;44.28;;
56537;SDS011;42435;53.292;6.000;2022-10-15T05:40:25;89.50;;;45.15;;
56537;SDS011;42435;53.292;6.000;2022-10-15T05:42:52;89.00;;;44.92;;
56537;SDS011;42435;53.292;6.000;2022-10-15T05:45:18;91.07;;;44.67;;
56537;SDS011;42435;53.292;6.000;2022-10-15T05:47:46;97.63;;;46.80;;
56537;SDS011;42435;53.292;6.000;2022-10-15T05:50:12;99.75;;;46.15;;
56537;SDS011;42435;53.292;6.000;2022-10-15T05:52:38;86.32;;;43.58;;
56537;SDS011;42435;53.292;6.000;2022-10-15T05:55:04;90.47;;;46.35;;
56537;SDS011;42435;53.292;6.000;2022-10-15T05:57:32;88.85;;;45.67;;
56537;SDS011;42435;53.292;6.000;2022-10-15T06:00:01;93.70;;;45.70;;
56537;SDS011;42435;53.292;6.000;2022-10-15T06:02:28;86.45;;;45.25;;
56537;SDS011;42435;53.292;6.000;2022-10-15T06:04:54;88.38;;;44.72;;
56537;SDS011;42435;53.292;6.000;2022-10-15T06:07:20;84.72;;;43.85;;
56537;SDS011;42435;53.292;6.000;2022-10-15T06:09:45;79.85;;;42.33;;
56537;SDS011;42435;53.292;6.000;2022-10-15T06:12:11;85.88;;;43.05;;
56537;SDS011;42435;53.292;6.000;2022-10-15T06:14:37;86.50;;;44.97;;
56537;SDS011;42435;53.292;6.000;2022-10-15T06:17:02;92.00;;;44.30;;
56537;SDS011;42435;53.292;6.000;2022-10-15T06:19:32;84.78;;;43.22;;
56537;SDS011;42435;53.292;6.000;2022-10-15T06:21:57;90.63;;;48.08;;
56537;SDS011;42435;53.292;6.000;2022-10-15T06:24:25;95.10;;;47.50;;
56537;SDS011;42435;53.292;6.000;2022-10-15T06:26:54;96.00;;;46.88;;
56537;SDS011;42435;53.292;6.000;2022-10-15T06:29:19;89.18;;;44.65;;
56537;SDS011;42435;53.292;6.000;2022-10-15T06:31:51;88.18;;;45.85;;
56537;SDS011;42435;53.292;6.000;2022-10-15T06:34:32;92.78;;;46.80;;
56537;SDS011;42435;53.292;6.000;2022-10-15T06:36:57;88.32;;;45.03;;
56537;SDS011;42435;53.292;6.000;2022-10-15T06:39:23;95.72;;;45.45;;
56537;SDS011;42435;53.292;6.000;2022-10-15T06:41:49;92.45;;;43.55;;
56537;SDS011;42435;53.292;6.000;2022-10-15T06:44:14;96.68;;;48.80;;
56537;SDS011;42435;53.292;6.000;2022-10-15T06:46:40;97.65;;;48.60;;
56537;SDS011;42435;53.292;6.000;2022-10-15T06:49:05;93.95;;;48.67;;
56537;SDS011;42435;53.292;6.000;2022-10-15T06:51:31;94.72;;;49.65;;
56537;SDS011;42435;53.292;6.000;2022-10-15T06:54:01;100.53;;;53.80;;
56537;SDS011;42435;53.292;6.000;2022-10-15T06:56:28;86.00;;;47.40;;
56537;SDS011;42435;53.292;6.000;2022-10-15T06:58:53;92.82;;;48.63;;
56537;SDS011;42435;53.292;6.000;2022-10-15T07:01:19;95.80;;;49.80;;
56537;SDS011;42435;53.292;6.000;2022-10-15T07:03:47;92.55;;;47.55;;
56537;SDS011;42435;53.292;6.000;2022-10-15T07:06:13;103.20;;;50.05;;
56537;SDS011;42435;53.292;6.000;2022-10-15T07:08:39;98.38;;;49.17;;
56537;SDS011;42435;53.292;6.000;2022-10-15T07:11:06;100.68;;;50.72;;
56537;SDS011;42435;53.292;6.000;2022-10-15T07:13:35;92.45;;;47.88;;
56537;SDS011;42435;53.292;6.000;2022-10-15T07:16:08;97.43;;;50.47;;
56537;SDS011;42435;53.292;6.000;2022-10-15T07:18:35;95.10;;;48.53;;
56537;SDS011;42435;53.292;6.000;2022-10-15T07:21:02;97.57;;;51.05;;
56537;SDS011;42435;53.292;6.000;2022-10-15T07:23:34;86.28;;;49.78;;
56537;SDS011;42435;53.292;6.000;2022-10-15T07:26:00;95.60;;;50.00;;
56537;SDS011;42435;53.292;6.000;2022-10-15T07:28:26;96.78;;;49.33;;
56537;SDS011;42435;53.292;6.000;2022-10-15T07:30:58;93.60;;;49.90;;
56537;SDS011;42435;53.292;6.000;2022-10-15T07:33:30;101.43;;;53.53;;
56537;SDS011;42435;53.292;6.000;2022-10-15T07:35:58;98.38;;;49.88;;
56537;SDS011;42435;53.292;6.000;2022-10-15T07:38:27;105.82;;;50.17;;
56537;SDS011;42435;53.292;6.000;2022-10-15T07:40:56;94.03;;;46.70;;
56537;SDS011;42435;53.292;6.000;2022-10-15T07:43:22;98.85;;;53.58;;
56537;SDS011;42435;53.292;6.000;2022-10-15T07:45:48;107.25;;;52.80;;
56537;SDS011;42435;53.292;6.000;2022-10-15T07:48:14;100.88;;;49.83;;
56537;SDS011;42435;53.292;6.000;2022-10-15T07:50:40;96.93;;;52.05;;
56537;SDS011;42435;53.292;6.000;2022-10-15T07:53:05;98.50;;;48.20;;
56537;SDS011;42435;53.292;6.000;2022-10-15T07:55:31;98.32;;;48.95;;
56537;SDS011;42435;53.292;6.000;2022-10-15T07:57:57;94.90;;;45.15;;
56537;SDS011;42435;53.292;6.000;2022-10-15T08:00:23;94.90;;;44.70;;
56537;SDS011;42435;53.292;6.000;2022-10-15T08:02:49;92.70;;;44.92;;
56537;SDS011;42435;53.292;6.000;2022-10-15T08:05:14;97.00;;;51.33;;
56537;SDS011;42435;53.292;6.000;2022-10-15T08:07:40;91.43;;;43.22;;
56537;SDS011;42435;53.292;6.000;2022-10-15T08:10:06;92.88;;;45.97;;
56537;SDS011;42435;53.292;6.000;2022-10-15T08:12:34;95.15;;;45.42;;
56537;SDS011;42435;53.292;6.000;2022-10-15T08:15:00;92.97;;;45.47;;
56537;SDS011;42435;53.292;6.000;2022-10-15T08:17:26;89.97;;;43.78;;
56537;SDS011;42435;53.292;6.000;2022-10-15T08:19:52;91.18;;;42.58;;
56537;SDS011;42435;53.292;6.000;2022-10-15T08:22:17;88.85;;;43.00;;
56537;SDS011;42435;53.292;6.000;2022-10-15T08:24:47;93.63;;;43.40;;
56537;SDS011;42435;53.292;6.000;2022-10-15T08:27:12;95.28;;;43.30;;
56537;SDS011;42435;53.292;6.000;2022-10-15T08:29:38;100.70;;;43.45;;
56537;SDS011;42435;53.292;6.000;2022-10-15T08:32:03;94.95;;;41.65;;
56537;SDS011;42435;53.292;6.000;2022-10-15T08:34:29;94.43;;;44.67;;
56537;SDS011;42435;53.292;6.000;2022-10-15T08:36:55;96.53;;;44.28;;
56537;SDS011;42435;53.292;6.000;2022-10-15T08:39:20;101.25;;;44.72;;
56537;SDS011;42435;53.292;6.000;2022-10-15T08:44:20;97.68;;;44.60;;
56537;SDS011;42435;53.292;6.000;2022-10-15T08:47:18;95.65;;;44.45;;
56537;SDS011;42435;53.292;6.000;2022-10-15T08:49:59;89.60;;;43.08;;
56537;SDS011;42435;53.292;6.000;2022-10-15T08:52:46;92.85;;;43.28;;
56537;SDS011;42435;53.292;6.000;2022-10-15T08:55:16;91.78;;;42.97;;
56537;SDS011;42435;53.292;6.000;2022-10-15T08:57:45;87.75;;;42.47;;
56537;SDS011;42435;53.292;6.000;2022-10-15T09:00:28;86.50;;;41.83;;
56537;SDS011;42435;53.292;6.000;2022-10-15T09:03:19;84.80;;;40.05;;
56537;SDS011;42435;53.292;6.000;2022-10-15T09:08:39;78.35;;;37.78;;
56537;SDS011;42435;53.292;6.000;2022-10-15T09:11:22;75.97;;;39.83;;
56537;SDS011;42435;53.292;6.000;2022-10-15T09:13:59;82.90;;;41.65;;
56537;SDS011;42435;53.292;6.000;2022-10-15T09:16:34;84.93;;;39.85;;
56537;SDS011;42435;53.292;6.000;2022-10-15T09:19:03;84.45;;;50.78;;
56537;SDS011;42435;53.292;6.000;2022-10-15T09:21:35;81.88;;;44.30;;
56537;SDS011;42435;53.292;6.000;2022-10-15T09:24:02;83.63;;;42.50;;
56537;SDS011;42435;53.292;6.000;2022-10-15T09:26:30;83.30;;;41.67;;
56537;SDS011;42435;53.292;6.000;2022-10-15T09:29:22;78.82;;;41.28;;
56537;SDS011;42435;53.292;6.000;2022-10-15T09:35:03;66.20;;;36.08;;
56537;SDS011;42435;53.292;6.000;2022-10-15T09:41:14;63.13;;;34.50;;
56537;SDS011;42435;53.292;6.000;2022-10-15T09:43:45;53.05;;;29.48;;
56537;SDS011;42435;53.292;6.000;2022-10-15T09:46:14;50.90;;;28.88;;
56537;SDS011;42435;53.292;6.000;2022-10-15T09:48:47;56.00;;;29.73;;
56537;SDS011;42435;53.292;6.000;2022-10-15T09:51:29;48.72;;;26.73;;
56537;SDS011;42435;53.292;6.000;2022-10-15T09:57:19;50.13;;;29.08;;
56537;SDS011;42435;53.292;6.000;2022-10-15T09:59:54;49.92;;;28.33;;
56537;SDS011;42435;53.292;6.000;2022-10-15T10:02:24;54.53;;;29.88;;
56537;SDS011;42435;53.292;6.000;2022-10-15T10:04:53;46.33;;;27.33;;
56537;SDS011;42435;53.292;6.000;2022-10-15T10:09:56;45.03;;;25.27;;
56537;SDS011;42435;53.292;6.000;2022-10-15T10:12:33;46.58;;;24.48;;
56537;SDS011;42435;53.292;6.000;2022-10-15T10:15:04;40.95;;;23.60;;
56537;SDS011;42435;53.292;6.000;2022-10-15T10:17:56;39.70;;;22.70;;
56537;SDS011;42435;53.292;6.000;2022-10-15T10:20:23;35.67;;;19.88;;
56537;SDS011;42435;53.292;6.000;2022-10-15T10:22:54;37.75;;;21.40;;
56537;SDS011;42435;53.292;6.000;2022-10-15T10:25:40;37.03;;;20.80;;
56537;SDS011;42435;53.292;6.000;2022-10-15T10:30:47;45.97;;;27.35;;
56537;SDS011;42435;53.292;6.000;2022-10-15T10:35:56;40.80;;;22.10;;
56537;SDS011;42435;53.292;6.000;2022-10-15T10:38:41;41.38;;;21.98;;
56537;SDS011;42435;53.292;6.000;2022-10-15T10:41:07;37.63;;;21.98;;
56537;SDS011;42435;53.292;6.000;2022-10-15T10:43:35;37.38;;;20.77;;
56537;SDS011;42435;53.292;6.000;2022-10-15T10:46:03;37.20;;;21.08;;
56537;SDS011;42435;53.292;6.000;2022-10-15T10:48:40;40.28;;;21.05;;
56537;SDS011;42435;53.292;6.000;2022-10-15T10:53:38;36.55;;;20.90;;
56537;SDS011;42435;53.292;6.000;2022-10-15T10:56:27;38.63;;;20.88;;
56537;SDS011;42435;53.292;6.000;2022-10-15T10:58:59;40.80;;;23.38;;
56537;SDS011;42435;53.292;6.000;2022-10-15T11:01:34;43.17;;;23.60;;
56537;SDS011;42435;53.292;6.000;2022-10-15T11:03:59;38.47;;;21.88;;
56537;SDS011;42435;53.292;6.000;2022-10-15T11:22:24;28.38;;;18.08;;
56537;SDS011;42435;53.292;6.000;2022-10-15T11:33:42;25.58;;;16.30;;
56537;SDS011;42435;53.292;6.000;2022-10-15T11:36:51;20.90;;;14.25;;
56537;SDS011;42435;53.292;6.000;2022-10-15T11:39:36;24.35;;;13.80;;
56537;SDS011;42435;53.292;6.000;2022-10-15T11:42:10;23.83;;;14.90;;
56537;SDS011;42435;53.292;6.000;2022-10-15T11:47:35;22.88;;;14.25;;
56537;SDS011;42435;53.292;6.000;2022-10-15T11:50:24;21.88;;;13.43;;
56537;SDS011;42435;53.292;6.000;2022-10-15T11:52:56;18.27;;;13.32;;
56537;SDS011;42435;53.292;6.000;2022-10-15T11:55:41;19.83;;;13.38;;
56537;SDS011;42435;53.292;6.000;2022-10-15T11:58:17;18.00;;;11.88;;
56537;SDS011;42435;53.292;6.000;2022-10-15T12:01:03;17.88;;;12.55;;
56537;SDS011;42435;53.292;6.000;2022-10-15T12:03:35;17.95;;;10.90;;
56537;SDS011;42435;53.292;6.000;2022-10-15T12:06:12;16.80;;;11.23;;
56537;SDS011;42435;53.292;6.000;2022-10-15T12:08:43;18.15;;;11.57;;
56537;SDS011;42435;53.292;6.000;2022-10-15T12:19:23;13.95;;;10.55;;
56537;SDS011;42435;53.292;6.000;2022-10-15T12:29:44;14.50;;;10.77;;
56537;SDS011;42435;53.292;6.000;2022-10-15T12:32:23;13.00;;;9.40;;
56537;SDS011;42435;53.292;6.000;2022-10-15T12:34:54;12.73;;;9.52;;
56537;SDS011;42435;53.292;6.000;2022-10-15T12:37:31;13.00;;;9.65;;
56537;SDS011;42435;53.292;6.000;2022-10-15T12:40:45;13.68;;;10.07;;
56537;SDS011;42435;53.292;6.000;2022-10-15T12:42:54;12.75;;;9.45;;
56537;SDS011;42435;53.292;6.000;2022-10-15T12:45:21;12.82;;;9.90;;
56537;SDS011;42435;53.292;6.000;2022-10-15T12:50:28;12.82;;;9.18;;
56537;SDS011;42435;53.292;6.000;2022-10-15T12:58:34;11.90;;;8.93;;
56537;SDS011;42435;53.292;6.000;2022-10-15T13:01:05;11.57;;;9.00;;
56537;SDS011;42435;53.292;6.000;2022-10-15T13:03:54;12.45;;;8.38;;
56537;SDS011;42435;53.292;6.000;2022-10-15T13:09:21;14.50;;;10.15;;
56537;SDS011;42435;53.292;6.000;2022-10-15T13:11:52;14.27;;;9.93;;
56537;SDS011;42435;53.292;6.000;2022-10-15T13:14:26;12.52;;;9.45;;
56537;SDS011;42435;53.292;6.000;2022-10-15T13:16:59;13.75;;;10.25;;
56537;SDS011;42435;53.292;6.000;2022-10-15T13:22:05;14.63;;;11.38;;
56537;SDS011;42435;53.292;6.000;2022-10-15T13:24:45;13.82;;;10.65;;
56537;SDS011;42435;53.292;6.000;2022-10-15T13:27:15;14.93;;;10.40;;
56537;SDS011;42435;53.292;6.000;2022-10-15T13:29:53;13.02;;;10.18;;
56537;SDS011;42435;53.292;6.000;2022-10-15T13:32:27;14.57;;;10.25;;
56537;SDS011;42435;53.292;6.000;2022-10-15T13:35:02;13.15;;;9.45;;
56537;SDS011;42435;53.292;6.000;2022-10-15T13:37:36;14.68;;;10.13;;
56537;SDS011;42435;53.292;6.000;2022-10-15T13:40:07;13.50;;;9.57;;
56537;SDS011;42435;53.292;6.000;2022-10-15T13:42:40;15.07;;;10.40;;
56537;SDS011;42435;53.292;6.000;2022-10-15T13:45:23;13.02;;;9.18;;
56537;SDS011;42435;53.292;6.000;2022-10-15T13:47:50;12.00;;;8.25;;
56537;SDS011;42435;53.292;6.000;2022-10-15T13:50:18;16.02;;;11.20;;
56537;SDS011;42435;53.292;6.000;2022-10-15T13:52:46;13.50;;;8.80;;
56537;SDS011;42435;53.292;6.000;2022-10-15T13:55:22;13.60;;;8.60;;
56537;SDS011;42435;53.292;6.000;2022-10-15T13:58:16;13.15;;;8.27;;
56537;SDS011;42435;53.292;6.000;2022-10-15T14:03:45;14.10;;;8.98;;
56537;SDS011;42435;53.292;6.000;2022-10-15T14:08:44;16.23;;;9.68;;
56537;SDS011;42435;53.292;6.000;2022-10-15T14:11:11;15.90;;;9.90;;
56537;SDS011;42435;53.292;6.000;2022-10-15T14:18:45;16.92;;;9.57;;
56537;SDS011;42435;53.292;6.000;2022-10-15T14:21:17;15.82;;;10.25;;
56537;SDS011;42435;53.292;6.000;2022-10-15T14:23:45;14.75;;;10.23;;
56537;SDS011;42435;53.292;6.000;2022-10-15T14:26:12;16.52;;;10.15;;
56537;SDS011;42435;53.292;6.000;2022-10-15T14:28:39;14.80;;;9.98;;
56537;SDS011;42435;53.292;6.000;2022-10-15T14:34:00;19.80;;;11.75;;
56537;SDS011;42435;53.292;6.000;2022-10-15T14:36:27;13.73;;;9.38;;
56537;SDS011;42435;53.292;6.000;2022-10-15T14:38:55;13.45;;;8.75;;
56537;SDS011;42435;53.292;6.000;2022-10-15T14:44:50;8.93;;;6.45;;
56537;SDS011;42435;53.292;6.000;2022-10-15T14:47:20;8.50;;;5.80;;
56537;SDS011;42435;53.292;6.000;2022-10-15T14:49:56;9.95;;;7.00;;
56537;SDS011;42435;53.292;6.000;2022-10-15T14:52:25;9.60;;;7.22;;
56537;SDS011;42435;53.292;6.000;2022-10-15T14:54:58;9.38;;;7.15;;
56537;SDS011;42435;53.292;6.000;2022-10-15T14:57:28;13.52;;;10.52;;
56537;SDS011;42435;53.292;6.000;2022-10-15T14:59:58;13.90;;;10.35;;
56537;SDS011;42435;53.292;6.000;2022-10-15T15:02:26;12.82;;;8.98;;
56537;SDS011;42435;53.292;6.000;2022-10-15T15:07:38;8.77;;;6.90;;
56537;SDS011;42435;53.292;6.000;2022-10-15T15:10:05;9.40;;;6.43;;
56537;SDS011;42435;53.292;6.000;2022-10-15T15:12:37;9.48;;;6.80;;
56537;SDS011;42435;53.292;6.000;2022-10-15T15:15:04;8.45;;;6.35;;
56537;SDS011;42435;53.292;6.000;2022-10-15T15:17:36;7.13;;;5.07;;
56537;SDS011;42435;53.292;6.000;2022-10-15T15:20:02;6.20;;;4.43;;
56537;SDS011;42435;53.292;6.000;2022-10-15T15:22:34;6.05;;;4.30;;
56537;SDS011;42435;53.292;6.000;2022-10-15T15:25:14;5.50;;;4.13;;
56537;SDS011;42435;53.292;6.000;2022-10-15T15:28:01;6.72;;;4.72;;
56537;SDS011;42435;53.292;6.000;2022-10-15T15:30:29;6.60;;;5.60;;
56537;SDS011;42435;53.292;6.000;2022-10-15T15:32:56;5.38;;;4.10;;
56537;SDS011;42435;53.292;6.000;2022-10-15T15:38:17;6.90;;;5.10;;
56537;SDS011;42435;53.292;6.000;2022-10-15T15:40:45;6.30;;;4.90;;
56537;SDS011;42435;53.292;6.000;2022-10-15T15:43:11;5.93;;;5.28;;
56537;SDS011;42435;53.292;6.000;2022-10-15T15:45:42;7.05;;;4.78;;
56537;SDS011;42435;53.292;6.000;2022-10-15T15:48:07;6.80;;;5.03;;
56537;SDS011;42435;53.292;6.000;2022-10-15T15:50:36;7.15;;;5.07;;
56537;SDS011;42435;53.292;6.000;2022-10-15T15:53:02;7.82;;;5.75;;
56537;SDS011;42435;53.292;6.000;2022-10-15T15:55:28;9.27;;;5.60;;
56537;SDS011;42435;53.292;6.000;2022-10-15T15:57:54;6.55;;;5.38;;
56537;SDS011;42435;53.292;6.000;2022-10-15T16:00:22;7.45;;;5.70;;
56537;SDS011;42435;53.292;6.000;2022-10-15T16:02:48;5.85;;;5.03;;
56537;SDS011;42435;53.292;6.000;2022-10-15T16:05:14;6.93;;;5.70;;
56537;SDS011;42435;53.292;6.000;2022-10-15T16:07:43;7.10;;;5.53;;
56537;SDS011;42435;53.292;6.000;2022-10-15T16:10:09;7.60;;;5.40;;
56537;SDS011;42435;53.292;6.000;2022-10-15T16:12:40;7.25;;;4.90;;
56537;SDS011;42435;53.292;6.000;2022-10-15T16:15:07;5.38;;;4.80;;
56537;SDS011;42435;53.292;6.000;2022-10-15T16:17:36;8.05;;;5.30;;
56537;SDS011;42435;53.292;6.000;2022-10-15T16:20:02;8.60;;;5.65;;
56537;SDS011;42435;53.292;6.000;2022-10-15T16:22:29;8.40;;;5.55;;
56537;SDS011;42435;53.292;6.000;2022-10-15T16:24:58;7.97;;;5.43;;
56537;SDS011;42435;53.292;6.000;2022-10-15T16:27:23;7.03;;;5.07;;
56537;SDS011;42435;53.292;6.000;2022-10-15T16:29:50;6.93;;;5.05;;
56537;SDS011;42435;53.292;6.000;2022-10-15T16:32:16;9.63;;;4.97;;
56537;SDS011;42435;53.292;6.000;2022-10-15T16:34:42;7.13;;;4.80;;
56537;SDS011;42435;53.292;6.000;2022-10-15T16:37:08;7.88;;;5.57;;
56537;SDS011;42435;53.292;6.000;2022-10-15T16:39:33;9.63;;;5.65;;